createdAt,value
2023-02-21T00:02:28.499Z,5.72
2023-02-21T00:05:49.371Z,4.53
2023-02-21T00:09:09.648Z,6.38
2023-02-21T00:12:30.264Z,2.22
2023-02-21T00:15:50.743Z,4.47
2023-02-21T00:19:12.385Z,2.72
2023-02-21T00:22:32.836Z,3.90
2023-02-21T00:25:53.077Z,11.10
2023-02-21T00:29:13.515Z,3.67
2023-02-21T00:32:33.820Z,2.45
2023-02-21T00:35:55.555Z,3.20
2023-02-21T00:39:16.007Z,2.90
2023-02-21T00:42:36.627Z,2.10
2023-02-21T00:45:57.611Z,5.40
2023-02-21T00:49:17.947Z,3.65
2023-02-21T00:52:40.268Z,3.28
2023-02-21T00:56:00.616Z,2.38
2023-02-21T00:59:21.050Z,2.45
2023-02-21T01:02:41.361Z,2.92
2023-02-21T01:06:01.551Z,2.42
2023-02-21T01:09:24.897Z,4.50
2023-02-21T01:12:46.947Z,3.85
2023-02-21T01:16:07.733Z,1.92
2023-02-21T01:19:28.044Z,1.77
2023-02-21T01:22:49.379Z,4.38
2023-02-21T01:26:11.220Z,2.58
2023-02-21T01:29:31.467Z,2.55
2023-02-21T01:32:53.692Z,2.58
2023-02-21T01:36:14.092Z,1.60
2023-02-21T01:39:34.832Z,1.48
2023-02-21T01:42:56.504Z,1.50
2023-02-21T01:46:16.876Z,2.00
2023-02-21T01:49:38.275Z,2.40
2023-02-21T01:52:59.250Z,2.30
2023-02-21T01:56:21.213Z,3.50
2023-02-21T01:59:44.986Z,1.50
2023-02-21T02:03:12.079Z,3.10
2023-02-21T02:06:35.400Z,2.30
2023-02-21T02:09:56.020Z,3.88
2023-02-21T02:13:19.631Z,1.80
2023-02-21T02:16:32.385Z,3.85
2023-02-21T02:20:04.343Z,4.55
2023-02-21T02:23:33.568Z,3.40
2023-02-21T02:27:14.078Z,4.47
2023-02-21T02:30:56.808Z,3.42
2023-02-21T02:34:35.618Z,1.83
2023-02-21T02:37:48.382Z,2.00
2023-02-21T02:41:00.993Z,3.00
2023-02-21T02:44:11.497Z,1.95
2023-02-21T02:47:23.459Z,1.63
2023-02-21T02:50:28.994Z,2.70
2023-02-21T02:53:33.489Z,1.85
2023-02-21T02:56:37.052Z,2.30
2023-02-21T02:59:44.712Z,1.88
2023-02-21T03:03:07.542Z,5.15
2023-02-21T03:06:24.124Z,4.47
2023-02-21T03:09:34.656Z,2.03
2023-02-21T03:12:44.645Z,2.53
2023-02-21T03:15:53.468Z,1.50
2023-02-21T03:19:02.226Z,1.63
2023-02-21T03:22:10.014Z,2.88
2023-02-21T03:25:17.220Z,1.55
2023-02-21T03:28:23.195Z,1.45
2023-02-21T03:31:31.889Z,3.60
2023-02-21T03:34:35.011Z,1.85
2023-02-21T03:37:40.478Z,2.25
2023-02-21T03:40:45.544Z,1.95
2023-02-21T03:43:48.603Z,1.85
2023-02-21T03:46:51.681Z,2.10
2023-02-21T03:49:54.874Z,1.90
2023-02-21T03:52:58.375Z,1.73
2023-02-21T03:56:02.891Z,1.45
2023-02-21T03:59:15.766Z,1.65
2023-02-21T04:02:20.209Z,2.53
2023-02-21T04:05:23.447Z,1.75
2023-02-21T04:08:26.725Z,1.90
2023-02-21T04:11:32.138Z,1.52
2023-02-21T04:14:35.775Z,1.63
2023-02-21T04:17:39.268Z,2.65
2023-02-21T04:20:46.029Z,2.33
2023-02-21T04:23:52.100Z,1.95
2023-02-21T04:26:56.495Z,1.88
2023-02-21T04:29:59.828Z,1.83
2023-02-21T04:33:03.713Z,2.40
2023-02-21T04:36:07.654Z,1.92
2023-02-21T04:39:15.692Z,2.45
2023-02-21T04:42:20.065Z,1.70
2023-02-21T04:45:23.256Z,1.95
2023-02-21T04:48:26.443Z,1.60
2023-02-21T04:51:29.467Z,1.35
2023-02-21T04:54:32.384Z,1.58
2023-02-21T04:57:37.212Z,1.27
2023-02-21T05:00:40.175Z,1.33
2023-02-21T05:03:43.073Z,1.30
2023-02-21T05:06:46.172Z,1.67
2023-02-21T05:09:49.724Z,1.65
2023-02-21T05:12:54.329Z,2.08
2023-02-21T05:15:57.275Z,2.13
2023-02-21T05:19:02.657Z,1.60
2023-02-21T05:22:07.603Z,1.27
2023-02-21T05:25:17.233Z,4.18
2023-02-21T05:28:21.474Z,1.55
2023-02-21T05:31:24.633Z,2.42
2023-02-21T05:34:27.596Z,1.58
2023-02-21T05:37:31.462Z,1.88
2023-02-21T05:40:34.521Z,1.40
2023-02-21T05:43:38.819Z,1.40
2023-02-21T05:46:41.993Z,1.30
2023-02-21T05:49:45.468Z,1.60
2023-02-21T05:52:48.401Z,2.13
2023-02-21T05:55:51.355Z,1.95
2023-02-21T05:58:55.686Z,1.45
2023-02-21T06:01:59.307Z,1.98
2023-02-21T06:05:02.259Z,1.73
2023-02-21T06:08:05.500Z,1.50
2023-02-21T06:11:08.460Z,1.30
2023-02-21T06:14:18.437Z,1.58
2023-02-21T06:17:21.503Z,2.55
2023-02-21T06:20:24.536Z,2.08
2023-02-21T06:23:27.893Z,1.70
2023-02-21T06:26:30.846Z,1.90
2023-02-21T06:29:35.184Z,2.00
2023-02-21T06:32:38.157Z,3.17
2023-02-21T06:35:41.165Z,2.58
2023-02-21T06:38:45.880Z,1.92
2023-02-21T06:41:50.450Z,1.55
2023-02-21T06:44:54.811Z,1.80
2023-02-21T06:47:57.887Z,2.50
2023-02-21T06:51:00.973Z,5.35
2023-02-21T06:54:04.772Z,9.75
2023-02-21T06:57:07.831Z,8.50
2023-02-21T07:00:13.698Z,9.35
2023-02-21T07:03:16.684Z,5.47
2023-02-21T07:06:19.786Z,6.53
2023-02-21T07:09:22.743Z,7.78
2023-02-21T07:12:25.747Z,6.68
2023-02-21T07:15:30.331Z,10.50
2023-02-21T07:18:33.270Z,7.00
2023-02-21T07:24:39.956Z,7.72
2023-02-21T07:27:43.002Z,6.10
2023-02-21T07:30:48.261Z,6.38
2023-02-21T07:33:51.267Z,13.48
2023-02-21T07:36:54.130Z,8.20
2023-02-21T07:39:57.331Z,10.45
2023-02-21T07:43:00.244Z,9.82
2023-02-21T07:46:04.758Z,8.18
2023-02-21T07:49:08.618Z,3.85
2023-02-21T07:52:11.512Z,5.35
2023-02-21T07:55:14.508Z,8.65
2023-02-21T07:58:19.137Z,3.65
2023-02-21T08:01:26.446Z,9.57
2023-02-21T08:04:29.411Z,5.47
2023-02-21T08:07:32.856Z,6.00
2023-02-21T08:10:35.857Z,4.40
2023-02-21T08:13:38.872Z,3.40
2023-02-21T08:16:43.150Z,8.57
2023-02-21T08:19:46.106Z,5.25
2023-02-21T08:22:50.134Z,4.57
2023-02-21T08:25:53.214Z,4.35
2023-02-21T08:28:56.194Z,3.70
2023-02-21T08:32:00.617Z,4.15
2023-02-21T08:35:06.002Z,5.40
2023-02-21T08:38:10.509Z,4.07
2023-02-21T08:41:13.803Z,3.78
2023-02-21T08:44:18.384Z,3.35
2023-02-21T08:47:22.793Z,4.70
2023-02-21T08:50:27.284Z,4.57
2023-02-21T08:53:30.664Z,4.63
2023-02-21T08:56:34.577Z,6.32
2023-02-21T08:59:42.542Z,3.90
2023-02-21T09:02:46.872Z,5.45
2023-02-21T09:05:49.835Z,3.75
2023-02-21T09:08:52.778Z,3.17
2023-02-21T09:11:55.757Z,4.95
2023-02-21T09:14:58.668Z,5.30
2023-02-21T09:18:02.976Z,5.72
2023-02-21T09:21:07.672Z,6.03
2023-02-21T09:24:10.533Z,6.47
2023-02-21T09:27:17.670Z,4.35
2023-02-21T09:30:23.868Z,4.35
2023-02-21T09:33:28.419Z,5.43
2023-02-21T09:36:31.488Z,5.18
2023-02-21T09:39:34.507Z,4.45
2023-02-21T09:42:37.496Z,5.00
2023-02-21T09:45:40.501Z,6.45
2023-02-21T09:48:45.470Z,6.05
2023-02-21T09:51:50.011Z,5.45
2023-02-21T09:54:57.365Z,5.82
2023-02-21T09:58:00.839Z,5.93
2023-02-21T10:01:12.899Z,7.85
2023-02-21T10:04:30.416Z,6.45
2023-02-21T10:07:41.788Z,4.78
2023-02-21T10:10:48.092Z,4.65
2023-02-21T10:13:58.068Z,5.28
2023-02-21T10:17:06.092Z,5.53
2023-02-21T10:20:15.830Z,7.15
2023-02-21T10:23:23.475Z,8.02
2023-02-21T10:26:29.567Z,5.72
2023-02-21T10:29:43.932Z,6.63
2023-02-21T10:32:47.232Z,5.57
2023-02-21T10:35:55.111Z,5.05
2023-02-21T10:39:03.755Z,7.43
2023-02-21T10:42:06.810Z,7.47
2023-02-21T10:45:13.308Z,6.78
2023-02-21T10:48:17.931Z,5.47
2023-02-21T10:51:32.916Z,7.28
2023-02-21T10:54:35.866Z,6.25
2023-02-21T10:57:43.834Z,10.07
2023-02-21T11:00:48.489Z,6.07
2023-02-21T11:03:53.635Z,7.20
2023-02-21T11:07:01.554Z,9.25
2023-02-21T11:10:27.668Z,7.15
2023-02-21T11:13:31.867Z,8.02
2023-02-21T11:16:36.545Z,9.02
2023-02-21T11:19:51.835Z,5.97
2023-02-21T11:22:56.105Z,7.25
2023-02-21T11:26:07.303Z,7.40
2023-02-21T11:29:13.443Z,8.10
2023-02-21T11:32:25.987Z,7.00
2023-02-21T11:35:30.736Z,8.65
2023-02-21T11:38:37.317Z,6.90
2023-02-21T11:41:47.954Z,6.30
2023-02-21T11:45:05.863Z,6.80
2023-02-21T11:48:18.151Z,7.93
2023-02-21T11:51:32.731Z,7.47
2023-02-21T11:54:37.176Z,7.57
2023-02-21T11:57:47.534Z,7.55
2023-02-21T12:01:02.882Z,5.63
2023-02-21T12:04:16.498Z,6.30
2023-02-21T12:07:29.365Z,9.15
2023-02-21T12:10:48.153Z,5.63
2023-02-21T12:14:02.464Z,6.10
2023-02-21T12:17:17.589Z,8.52
2023-02-21T12:20:29.228Z,9.63
2023-02-21T12:23:41.136Z,9.63
2023-02-21T12:26:52.853Z,6.97
2023-02-21T12:30:27.003Z,13.38
2023-02-21T12:33:42.566Z,9.98
2023-02-21T12:37:05.680Z,9.63
2023-02-21T12:40:20.168Z,10.40
2023-02-21T12:43:37.851Z,9.70
2023-02-21T12:46:45.359Z,12.73
2023-02-21T12:49:59.371Z,13.50
2023-02-21T12:53:07.628Z,8.93
2023-02-21T12:56:14.520Z,10.35
2023-02-21T12:59:27.411Z,12.25
2023-02-21T13:02:39.969Z,9.15
2023-02-21T13:05:46.107Z,6.80
2023-02-21T13:09:00.204Z,10.88
2023-02-21T13:12:08.980Z,11.32
2023-02-21T13:15:20.462Z,10.20
2023-02-21T13:18:27.320Z,11.50
2023-02-21T13:21:49.384Z,10.40
2023-02-21T13:25:02.945Z,8.63
2023-02-21T13:28:12.763Z,9.93
2023-02-21T13:31:23.007Z,9.80
2023-02-21T13:34:30.366Z,8.77
2023-02-21T13:37:35.266Z,9.77
2023-02-21T13:40:44.009Z,9.15
2023-02-21T13:43:51.724Z,7.65
2023-02-21T13:47:16.523Z,9.98
2023-02-21T13:50:46.693Z,10.45
2023-02-21T13:54:11.591Z,7.90
2023-02-21T13:57:30.922Z,5.97
2023-02-21T14:00:52.156Z,9.63
2023-02-21T14:03:58.288Z,10.90
2023-02-21T14:07:01.399Z,9.88
2023-02-21T14:10:04.466Z,6.97
2023-02-21T14:13:19.128Z,9.40
2023-02-21T14:16:26.195Z,17.35
2023-02-21T14:19:37.239Z,13.30
2023-02-21T14:22:40.186Z,8.57
2023-02-21T14:25:43.124Z,14.43
2023-02-21T14:29:03.138Z,15.10
2023-02-21T14:32:26.482Z,10.80
2023-02-21T14:35:35.358Z,14.15
2023-02-21T14:38:42.229Z,14.98
2023-02-21T14:42:00.726Z,18.55
2023-02-21T14:45:19.227Z,11.18
2023-02-21T14:48:42.598Z,10.35
2023-02-21T14:52:09.233Z,12.60
2023-02-21T14:55:48.190Z,12.80
2023-02-21T14:59:19.320Z,10.40
2023-02-21T15:02:29.328Z,10.15
2023-02-21T15:05:39.096Z,9.88
2023-02-21T15:08:46.595Z,9.85
2023-02-21T15:11:51.168Z,11.52
2023-02-21T15:14:54.744Z,10.98
2023-02-21T15:18:02.523Z,7.75
2023-02-21T15:21:16.633Z,17.33
2023-02-21T15:24:22.698Z,13.15
2023-02-21T15:27:25.805Z,11.93
2023-02-21T15:30:34.407Z,9.60
2023-02-21T15:33:39.501Z,8.93
2023-02-21T15:36:42.753Z,11.20
2023-02-21T15:39:55.385Z,10.77
2023-02-21T15:42:59.134Z,9.32
2023-02-21T15:46:04.956Z,12.82
2023-02-21T15:49:08.472Z,6.47
2023-02-21T15:52:28.015Z,9.57
2023-02-21T15:55:32.807Z,10.27
2023-02-21T15:58:36.001Z,12.88
2023-02-21T16:01:39.454Z,9.35
2023-02-21T16:04:44.198Z,13.00
2023-02-21T16:07:51.283Z,10.93
2023-02-21T16:11:03.404Z,13.43
2023-02-21T16:14:06.563Z,7.68
2023-02-21T16:17:24.973Z,9.25
2023-02-21T16:20:31.291Z,5.65
2023-02-21T16:23:36.170Z,10.30
2023-02-21T16:26:40.606Z,6.38
2023-02-21T16:29:43.713Z,7.70
2023-02-21T16:32:48.950Z,9.90
2023-02-21T16:35:51.988Z,11.18
2023-02-21T16:38:55.611Z,6.90
2023-02-21T16:42:00.197Z,10.73
2023-02-21T16:45:03.119Z,4.85
2023-02-21T16:48:09.141Z,9.70
2023-02-21T16:51:15.445Z,10.48
2023-02-21T16:54:18.871Z,7.72
2023-02-21T16:57:23.995Z,7.80
2023-02-21T17:00:27.065Z,6.93
2023-02-21T17:03:30.178Z,6.93
2023-02-21T17:06:34.619Z,6.40
2023-02-21T17:09:39.349Z,8.02
2023-02-21T17:12:43.889Z,11.30
2023-02-21T17:15:47.663Z,9.38
2023-02-21T17:18:50.704Z,5.53
2023-02-21T17:21:54.070Z,8.43
2023-02-21T17:24:57.169Z,7.93
2023-02-21T17:28:02.059Z,6.43
2023-02-21T17:31:05.391Z,8.65
2023-02-21T17:34:08.377Z,8.32
2023-02-21T17:37:11.588Z,10.88
2023-02-21T17:40:15.741Z,6.57
2023-02-21T17:43:20.243Z,9.75
2023-02-21T17:46:23.732Z,7.78
2023-02-21T17:49:28.585Z,7.10
2023-02-21T17:52:32.785Z,8.90
2023-02-21T17:55:35.724Z,7.53
2023-02-21T17:58:40.013Z,5.13
2023-02-21T18:01:43.749Z,7.90
2023-02-21T18:04:48.892Z,7.45
2023-02-21T18:07:53.391Z,9.23
2023-02-21T18:10:56.402Z,9.52
2023-02-21T18:14:00.740Z,9.25
2023-02-21T18:17:03.651Z,6.05
2023-02-21T18:20:09.391Z,9.55
2023-02-21T18:23:12.294Z,5.90
2023-02-21T18:26:15.615Z,5.90
2023-02-21T18:29:20.020Z,10.65
2023-02-21T18:32:23.230Z,8.18
2023-02-21T18:35:26.247Z,8.02
2023-02-21T18:38:29.527Z,6.00
2023-02-21T18:41:34.663Z,7.75
2023-02-21T18:44:38.991Z,6.82
2023-02-21T18:47:42.149Z,7.53
2023-02-21T18:50:45.755Z,6.68
2023-02-21T18:53:49.784Z,8.48
2023-02-21T18:56:53.571Z,4.93
2023-02-21T18:59:58.051Z,9.43
2023-02-21T19:03:01.209Z,8.55
2023-02-21T19:06:06.282Z,8.05
2023-02-21T19:09:09.229Z,8.27
2023-02-21T19:12:12.279Z,7.47
2023-02-21T19:15:17.255Z,9.75
2023-02-21T19:18:20.369Z,7.88
2023-02-21T19:21:23.501Z,7.90
2023-02-21T19:24:27.004Z,6.65
2023-02-21T19:27:29.914Z,8.73
2023-02-21T19:30:37.029Z,7.25
2023-02-21T19:33:40.133Z,7.68
2023-02-21T19:36:43.108Z,9.40
2023-02-21T19:39:46.316Z,9.55
2023-02-21T19:42:49.458Z,8.38
2023-02-21T19:45:54.669Z,11.35
2023-02-21T19:48:57.996Z,10.15
2023-02-21T19:52:01.106Z,9.45
2023-02-21T19:55:04.792Z,7.10
2023-02-21T19:58:08.613Z,8.48
2023-02-21T20:01:13.211Z,10.98
2023-02-21T20:04:18.798Z,10.18
2023-02-21T20:07:22.038Z,9.38
2023-02-21T20:10:26.038Z,14.93
2023-02-21T20:13:29.121Z,8.38
2023-02-21T20:16:39.003Z,9.55
2023-02-21T20:19:42.058Z,11.07
2023-02-21T20:22:45.078Z,10.27
2023-02-21T20:25:48.979Z,9.65
2023-02-21T20:28:52.733Z,11.40
2023-02-21T20:31:58.134Z,7.95
2023-02-21T20:35:01.839Z,8.80
2023-02-21T20:38:05.875Z,11.43
2023-02-21T20:41:09.349Z,9.60
2023-02-21T20:44:12.679Z,10.40
2023-02-21T20:47:17.053Z,12.02
2023-02-21T20:50:21.225Z,7.00
2023-02-21T20:53:24.209Z,10.30
2023-02-21T20:56:31.450Z,9.23
2023-02-21T20:59:36.316Z,14.25
2023-02-21T21:02:40.638Z,10.88
2023-02-21T21:05:44.130Z,9.45
2023-02-21T21:08:47.079Z,13.63
2023-02-21T21:11:50.220Z,11.30
2023-02-21T21:14:54.253Z,9.88
2023-02-21T21:17:58.807Z,9.98
2023-02-21T21:21:01.855Z,13.20
2023-02-21T21:24:07.081Z,8.68
2023-02-21T21:27:10.949Z,9.93
2023-02-21T21:30:18.215Z,12.68
2023-02-21T21:33:22.638Z,11.43
2023-02-21T21:36:26.545Z,10.73
2023-02-21T21:39:31.557Z,9.10
2023-02-21T21:42:34.580Z,10.07
2023-02-21T21:45:44.354Z,9.48
2023-02-21T21:48:48.858Z,10.65
2023-02-21T21:51:55.088Z,10.15
2023-02-21T21:54:58.358Z,10.23
2023-02-21T21:58:01.609Z,9.32
2023-02-21T22:01:06.285Z,10.55
2023-02-21T22:04:13.593Z,8.80
2023-02-21T22:07:17.516Z,12.57
2023-02-21T22:10:21.351Z,11.13
2023-02-21T22:13:29.154Z,11.32
2023-02-21T22:16:36.829Z,13.55
2023-02-21T22:19:41.138Z,16.10
2023-02-21T22:22:46.116Z,16.77
2023-02-21T22:25:50.292Z,10.32
2023-02-21T22:28:53.624Z,14.98
2023-02-21T22:31:56.582Z,13.48
2023-02-21T22:35:00.956Z,14.75
2023-02-21T22:38:04.933Z,12.65
2023-02-21T22:41:09.212Z,9.40
2023-02-21T22:44:13.104Z,10.18
2023-02-21T22:47:16.031Z,8.80
2023-02-21T22:50:22.188Z,12.65
2023-02-21T22:53:25.144Z,11.07
2023-02-21T22:56:30.016Z,9.90
2023-02-21T22:59:35.375Z,11.32
2023-02-21T23:02:38.402Z,12.70
2023-02-21T23:05:44.674Z,11.75
2023-02-21T23:08:49.307Z,12.38
2023-02-21T23:11:54.226Z,11.65
2023-02-21T23:14:57.274Z,12.05
2023-02-21T23:18:00.176Z,10.75
2023-02-21T23:21:05.270Z,10.25
2023-02-21T23:24:11.346Z,11.82
2023-02-21T23:27:14.356Z,9.73
2023-02-21T23:30:18.645Z,10.98
2023-02-21T23:33:26.283Z,14.93
2023-02-21T23:36:31.506Z,11.50
2023-02-21T23:39:34.471Z,10.95
2023-02-21T23:42:40.866Z,10.20
2023-02-21T23:45:43.893Z,11.93
2023-02-21T23:48:46.984Z,9.25
2023-02-21T23:51:53.722Z,8.38
2023-02-21T23:54:56.699Z,10.07
2023-02-21T23:58:02.052Z,8.73
